createdAt,value
2022-11-20T00:00:47.609Z,11.70
2022-11-20T00:03:36.930Z,11.60
2022-11-20T00:06:27.301Z,11.50
2022-11-20T00:09:16.246Z,11.50
2022-11-20T00:12:06.883Z,11.50
2022-11-20T00:14:57.964Z,11.50
2022-11-20T00:17:47.396Z,11.60
2022-11-20T00:20:36.764Z,11.60
2022-11-20T00:23:26.242Z,11.60
2022-11-20T00:26:17.596Z,11.70
2022-11-20T00:29:06.688Z,11.20
2022-11-20T00:31:57.350Z,11.70
2022-11-20T00:34:47.177Z,11.70
2022-11-20T00:37:36.437Z,11.70
2022-11-20T00:40:26.059Z,11.80
2022-11-20T00:43:16.659Z,11.80
2022-11-20T00:46:08.034Z,11.60
2022-11-20T00:48:58.062Z,11.40
2022-11-20T00:51:47.105Z,11.40
2022-11-20T00:54:36.615Z,11.50
2022-11-20T00:57:25.651Z,11.50
2022-11-20T01:00:15.326Z,11.60
2022-11-20T01:03:04.315Z,11.60
2022-11-20T01:05:55.154Z,11.70
2022-11-20T01:08:45.155Z,11.70
2022-11-20T01:11:35.633Z,11.60
2022-11-20T01:14:24.657Z,11.70
2022-11-20T01:17:14.937Z,11.70
2022-11-20T01:20:04.438Z,11.60
2022-11-20T01:22:54.986Z,11.70
2022-11-20T01:25:44.131Z,11.60
2022-11-20T01:28:33.426Z,11.60
2022-11-20T01:31:25.339Z,11.60
2022-11-20T01:34:15.641Z,11.60
2022-11-20T01:37:04.411Z,11.50
2022-11-20T01:39:55.696Z,11.50
2022-11-20T01:43:07.408Z,11.50
2022-11-20T01:46:21.877Z,11.40
2022-11-20T01:49:17.829Z,11.30
2022-11-20T01:52:10.389Z,11.30
2022-11-20T01:55:06.063Z,11.20
2022-11-20T01:57:55.588Z,11.10
2022-11-20T02:00:45.699Z,11.10
2022-11-20T02:03:35.814Z,10.80
2022-11-20T02:06:27.937Z,10.70
2022-11-20T02:09:17.295Z,10.80
2022-11-20T02:12:29.178Z,10.90
2022-11-20T02:15:17.348Z,11.00
2022-11-20T02:18:08.106Z,11.10
2022-11-20T02:21:01.504Z,10.90
2022-11-20T02:24:06.104Z,10.70
2022-11-20T02:26:57.137Z,10.80
2022-11-20T02:29:52.069Z,10.90
2022-11-20T02:32:41.979Z,11.00
2022-11-20T02:35:46.434Z,11.00
2022-11-20T02:38:35.599Z,11.10
2022-11-20T02:41:33.637Z,11.20
2022-11-20T02:44:22.638Z,11.20
2022-11-20T02:47:12.037Z,11.20
2022-11-20T02:50:01.273Z,11.20
2022-11-20T02:52:50.429Z,11.20
2022-11-20T02:55:39.697Z,11.20
2022-11-20T02:58:30.411Z,11.20
2022-11-20T03:01:19.170Z,11.20
2022-11-20T03:04:08.906Z,11.20
2022-11-20T03:06:58.372Z,11.20
2022-11-20T03:09:47.666Z,11.10
2022-11-20T03:12:36.783Z,11.10
2022-11-20T03:15:26.895Z,11.10
2022-11-20T03:18:15.845Z,11.10
2022-11-20T03:21:05.022Z,11.10
2022-11-20T03:23:55.431Z,11.00
2022-11-20T03:26:44.641Z,11.00
2022-11-20T03:29:33.446Z,10.90
2022-11-20T03:32:23.695Z,10.80
2022-11-20T03:35:12.486Z,10.80
2022-11-20T03:38:01.918Z,10.70
2022-11-20T03:40:51.041Z,10.70
2022-11-20T03:43:42.637Z,10.70
2022-11-20T03:46:31.818Z,10.70
2022-11-20T03:49:23.309Z,10.70
2022-11-20T03:52:12.585Z,10.70
2022-11-20T03:55:02.194Z,10.70
2022-11-20T03:57:51.037Z,10.70
2022-11-20T04:00:39.805Z,10.80
2022-11-20T04:03:28.921Z,10.80
2022-11-20T04:06:23.062Z,10.80
2022-11-20T04:09:11.512Z,10.80
2022-11-20T04:12:00.799Z,10.80
2022-11-20T04:14:49.895Z,10.80
2022-11-20T04:17:39.709Z,10.90
2022-11-20T04:20:29.098Z,10.90
2022-11-20T04:23:21.482Z,10.90
2022-11-20T04:26:14.786Z,10.90
2022-11-20T04:29:04.778Z,10.80
2022-11-20T04:31:54.164Z,10.80
2022-11-20T04:34:43.189Z,10.80
2022-11-20T04:37:33.128Z,10.80
2022-11-20T06:52:58.574Z,9.80
2022-11-20T06:55:49.702Z,9.80
2022-11-20T06:58:39.022Z,9.80
2022-11-20T07:01:28.573Z,9.80
2022-11-20T07:04:18.137Z,9.90
2022-11-20T07:07:07.608Z,9.90
2022-11-20T07:09:56.909Z,9.90
2022-11-20T07:12:51.974Z,10.00
2022-11-20T07:15:41.095Z,10.00
2022-11-20T07:18:29.707Z,10.00
2022-11-20T07:21:18.395Z,10.10
2022-11-20T07:24:08.158Z,10.20
2022-11-20T07:26:57.252Z,10.20
2022-11-20T07:29:47.230Z,10.30
2022-11-20T07:32:36.271Z,10.30
2022-11-20T07:35:26.020Z,10.40
2022-11-20T07:38:15.580Z,10.50
2022-11-20T07:41:05.130Z,10.60
2022-11-20T07:43:54.377Z,10.70
2022-11-20T07:46:45.489Z,10.90
2022-11-20T07:49:35.060Z,11.00
2022-11-20T07:52:24.398Z,11.00
2022-11-20T07:55:14.372Z,11.10
2022-11-20T07:58:03.185Z,11.20
2022-11-20T08:00:52.980Z,11.30
2022-11-20T08:03:43.961Z,11.30
2022-11-20T08:06:32.965Z,11.40
2022-11-20T08:09:22.627Z,11.40
2022-11-20T08:12:36.329Z,11.50
2022-11-20T08:15:25.784Z,11.60
2022-11-20T08:18:30.792Z,11.50
2022-11-20T08:21:22.416Z,11.40
2022-11-20T08:24:12.303Z,11.30
2022-11-20T08:27:01.520Z,11.10
2022-11-20T08:29:51.256Z,10.80
2022-11-20T08:32:40.428Z,10.40
2022-11-20T08:35:29.504Z,10.10
2022-11-20T08:38:20.167Z,9.90
2022-11-20T08:41:22.498Z,9.80
2022-11-20T08:44:11.753Z,9.90
2022-11-20T08:47:01.092Z,10.10
2022-11-20T08:49:49.737Z,10.30
2022-11-20T08:52:39.965Z,10.40
2022-11-20T08:55:29.970Z,10.90
2022-11-20T08:58:18.468Z,10.80
2022-11-20T09:01:07.398Z,10.80
2022-11-20T09:03:57.838Z,10.90
2022-11-20T09:06:46.943Z,10.90
2022-11-20T09:09:36.099Z,10.60
2022-11-20T09:12:26.754Z,10.60
2022-11-20T09:15:16.460Z,10.80
2022-11-20T09:18:07.645Z,10.90
2022-11-20T09:20:59.683Z,11.10
2022-11-20T09:23:48.601Z,11.30
2022-11-20T09:26:37.377Z,11.50
2022-11-20T09:29:27.984Z,11.50
2022-11-20T09:32:16.796Z,11.30
2022-11-20T09:35:06.719Z,11.40
2022-11-20T10:19:01.511Z,13.40
2022-11-20T10:22:03.746Z,13.70
2022-11-20T10:24:59.662Z,13.90
2022-11-20T10:28:07.366Z,14.10
2022-11-20T10:31:02.488Z,14.20
2022-11-20T10:34:11.642Z,14.30
2022-11-20T10:37:08.664Z,14.40
2022-11-20T10:40:04.367Z,14.40
2022-11-20T10:42:57.640Z,14.50
2022-11-20T10:45:53.767Z,14.60
2022-11-20T10:48:45.877Z,14.70
2022-11-20T10:51:40.243Z,14.80
2022-11-20T10:54:39.138Z,14.80
2022-11-20T11:00:24.870Z,15.00
2022-11-20T11:03:24.678Z,15.00
2022-11-20T11:06:23.587Z,15.00
2022-11-20T11:09:18.072Z,15.00
2022-11-20T11:12:11.894Z,15.10
2022-11-20T11:15:01.132Z,15.10
2022-11-20T11:17:50.667Z,15.20
2022-11-20T11:20:40.646Z,15.30
2022-11-20T11:23:35.749Z,15.30
2022-11-20T11:26:26.470Z,15.40
2022-11-20T11:29:21.552Z,15.50
2022-11-20T11:32:15.085Z,15.50
2022-11-20T19:20:35.171Z,10.10
2022-11-20T19:23:24.544Z,9.90
2022-11-20T19:26:13.961Z,9.70
2022-11-20T19:29:04.557Z,9.90
2022-11-20T19:31:53.647Z,9.90
2022-11-20T19:34:43.817Z,9.90
2022-11-20T19:37:34.833Z,9.90
2022-11-20T19:40:23.684Z,9.70
2022-11-20T19:43:13.118Z,9.50
2022-11-20T19:46:03.909Z,9.50
2022-11-20T19:48:54.341Z,9.60
2022-11-20T19:51:47.827Z,9.60
2022-11-20T19:54:37.129Z,9.60
2022-11-20T19:57:26.152Z,9.70
2022-11-20T20:00:23.079Z,9.90
2022-11-20T20:03:19.095Z,10.00
2022-11-20T20:06:10.104Z,10.00
2022-11-20T20:09:00.713Z,10.00
2022-11-20T20:11:49.769Z,10.10
2022-11-20T20:14:38.608Z,10.30
2022-11-20T20:17:28.411Z,10.30
2022-11-20T20:20:19.638Z,10.40
2022-11-20T20:23:08.996Z,10.40
2022-11-20T20:25:58.629Z,10.50
2022-11-20T20:28:47.701Z,10.50
2022-11-20T20:31:37.167Z,10.40
2022-11-20T20:34:29.648Z,10.20
2022-11-20T20:37:20.076Z,10.00
2022-11-20T20:40:15.205Z,10.10
2022-11-20T20:43:04.262Z,10.20
2022-11-20T20:45:53.863Z,10.30
2022-11-20T20:48:43.110Z,10.30
2022-11-20T20:51:32.458Z,10.30
2022-11-20T20:54:24.258Z,10.30
2022-11-20T20:57:13.920Z,10.30
2022-11-20T21:00:02.863Z,10.20
2022-11-20T21:02:52.093Z,10.10
2022-11-20T21:05:41.559Z,10.00
2022-11-20T21:08:30.507Z,10.00
2022-11-20T21:11:22.439Z,10.00
2022-11-20T21:14:11.568Z,9.90
2022-11-20T21:17:00.234Z,9.90
2022-11-20T21:19:49.268Z,9.70
2022-11-20T21:22:37.131Z,9.40
2022-11-20T21:25:26.535Z,9.10
2022-11-20T21:28:18.634Z,9.20
2022-11-20T21:31:09.339Z,9.20
2022-11-20T21:33:59.341Z,9.30
2022-11-20T21:36:49.280Z,9.20
2022-11-20T21:39:50.909Z,9.30
2022-11-20T21:42:40.670Z,9.40
2022-11-20T21:45:31.399Z,9.50
2022-11-20T21:48:20.410Z,9.60
2022-11-20T21:51:11.924Z,9.50
2022-11-20T21:54:00.870Z,9.60
2022-11-20T21:56:50.167Z,9.30
2022-11-20T21:59:38.738Z,9.10
2022-11-20T22:02:29.432Z,9.00
2022-11-20T22:05:19.020Z,9.20
2022-11-20T22:08:08.907Z,9.30
2022-11-20T22:10:59.494Z,9.30
2022-11-20T22:14:06.197Z,9.50
2022-11-20T22:16:55.690Z,9.60
2022-11-20T22:19:47.368Z,9.70
2022-11-20T22:22:36.405Z,9.80
2022-11-20T22:25:25.614Z,9.90
2022-11-20T22:28:14.204Z,10.00
2022-11-20T22:31:05.604Z,10.00
2022-11-20T22:33:55.455Z,10.00
2022-11-20T22:36:46.365Z,10.10
2022-11-20T22:39:35.294Z,9.90
2022-11-20T22:42:25.015Z,9.80
2022-11-20T22:45:14.637Z,9.70
2022-11-20T22:48:04.015Z,9.70
2022-11-20T22:50:53.251Z,9.80
2022-11-20T22:53:45.359Z,9.80
2022-11-20T22:56:35.314Z,9.80
2022-11-20T22:59:24.580Z,9.80
2022-11-20T23:02:13.441Z,9.80
2022-11-20T23:05:03.174Z,9.60
2022-11-20T23:07:52.614Z,9.50
2022-11-20T23:10:43.477Z,9.50
2022-11-20T23:13:32.636Z,9.60
2022-11-20T23:16:22.102Z,9.60
2022-11-20T23:19:14.283Z,9.70
2022-11-20T23:22:03.481Z,9.60
2022-11-20T23:24:53.195Z,9.30
2022-11-20T23:27:44.281Z,9.30
2022-11-20T23:30:35.388Z,9.40
2022-11-20T23:33:24.595Z,9.30
2022-11-20T23:36:14.502Z,9.10
2022-11-20T23:39:03.794Z,8.80
2022-11-20T23:41:52.789Z,8.70
2022-11-20T23:44:44.219Z,8.90
2022-11-20T23:47:33.702Z,8.70
2022-11-20T23:50:23.304Z,8.60
2022-11-20T23:53:14.535Z,8.60
2022-11-20T23:56:05.033Z,8.70
2022-11-20T23:58:54.153Z,8.80
